Time;durP1;ratioP1;P1;durP2;ratioP2;P2;SDS_P1;SDS_P2;PMS_P1;PMS_P2;Temp;Humidity;BMP_temperature;BMP_pressure;BME280_temperature;BME280_humidity;BME280_pressure;Samples;Min_cycle;Max_cycle;Signal;HPM_P1;HPM_P2
2024/05/03 10:57:00;;;;;;;12.43;11.52;;;;;;;-145.37;100.00;61290.75;6585904;21;20057;-88
2024/05/03 10:59:30;;;;;;;10.13;9.45;;;;;;;-145.37;100.00;61290.75;6486044;22;20489;-91
2024/05/03 11:01:59;;;;;;;10.50;9.70;;;;;;;-145.37;100.00;61290.75;6476196;22;20683;-86
2024/05/03 11:04:26;;;;;;;10.93;10.02;;;;;;;-145.37;100.00;61290.75;6478006;22;20001;-91
2024/05/03 11:06:57;;;;;;;11.80;11.00;;;;;;;-145.37;100.00;61290.75;6482050;22;20111;-92
2024/05/03 11:09:27;;;;;;;10.65;9.50;;;;;;;-145.37;100.00;61290.75;6484732;22;20383;-92
2024/05/03 11:11:56;;;;;;;10.70;9.68;;;;;;;-145.37;100.00;61290.75;6494119;22;19985;-90
2024/05/03 11:14:22;;;;;;;10.00;8.95;;;;;;;-145.37;100.00;61290.75;6493964;22;20067;-90
2024/05/03 11:16:55;;;;;;;9.82;8.98;;;;;;;-145.37;100.00;61290.75;6489966;22;20011;-94
2024/05/03 11:19:23;;;;;;;12.15;11.35;;;;;;;-145.37;100.00;61290.75;6492930;22;19997;-92
2024/05/03 11:21:50;;;;;;;16.20;15.10;;;;;;;-145.37;100.00;61290.75;6535102;22;20007;-92
2024/05/03 11:24:25;;;;;;;17.48;16.42;;;;;;;-145.37;100.00;61290.75;6487737;22;20001;-87
2024/05/03 11:27:01;;;;;;;21.50;20.08;;;;;;;-145.37;100.00;61290.75;6486269;22;20003;-91
2024/05/03 11:29:34;;;;;;;20.90;19.17;;;;;;;-145.37;100.00;61290.75;6496749;21;20469;-94
2024/05/03 11:32:14;;;;;;;19.27;18.02;;;;;;;-145.37;100.00;61290.75;6424837;22;20002;-88
2024/05/03 11:34:42;;;;;;;20.30;18.80;;;;;;;-145.37;100.00;61290.75;6426723;22;19994;-89
2024/05/03 11:37:12;;;;;;;22.13;20.73;;;;;;;-145.37;100.00;61290.75;6429051;22;20277;-86
2024/05/03 11:39:41;;;;;;;21.40;19.92;;;;;;;-145.37;100.00;61290.75;6428158;22;20000;-86
2024/05/03 11:42:08;;;;;;;19.90;18.15;;;;;;;-145.37;100.00;61290.75;6426191;22;19994;-91
2024/05/03 11:44:52;;;;;;;18.35;17.17;;;;;;;-145.37;100.00;61290.75;6474774;22;19982;-91
2024/05/03 11:47:19;;;;;;;20.15;18.67;;;;;;;-145.37;100.00;61290.75;6469637;22;20013;-86
2024/05/03 11:49:46;;;;;;;21.88;20.50;;;;;;;-145.37;100.00;61290.75;6429537;22;19994;-87
2024/05/03 11:52:14;;;;;;;21.60;20.00;;;;;;;-145.37;100.00;61290.75;6427942;22;20038;-90
2024/05/03 11:54:55;;;;;;;22.80;20.90;;;;;;;-145.37;100.00;61290.75;6474140;22;20086;-90
2024/05/03 11:58:11;;;;;;;20.58;19.05;;;;;;;-145.37;100.00;61290.75;6439759;22;20018;-86
2024/05/03 12:00:38;;;;;;;22.25;20.85;;;;;;;-145.37;100.00;61290.75;6429676;22;20053;-88
2024/05/03 12:03:12;;;;;;;21.25;19.90;;;;;;;-145.37;100.00;61290.75;6471708;22;20007;-89
2024/05/03 12:05:44;;;;;;;23.95;22.20;;;;;;;-145.37;100.00;61290.75;6431759;22;20000;-91
2024/05/03 12:08:16;;;;;;;25.85;24.27;;;;;;;-145.37;100.00;61290.75;6427296;22;20009;-84
2024/05/03 12:10:42;;;;;;;19.80;18.27;;;;;;;-145.37;100.00;61290.75;6422186;22;20206;-84
2024/05/03 12:13:09;;;;;;;18.90;17.60;;;;;;;-145.37;100.00;61290.75;6464443;22;20296;-85
2024/05/03 12:15:36;;;;;;;21.98;19.88;;;;;;;-145.37;100.00;61290.75;6421103;22;19997;-86
2024/05/03 12:18:04;;;;;;;19.20;17.52;;;;;;;-145.37;100.00;61290.75;6461361;22;20012;-87
2024/05/03 12:20:31;;;;;;;23.60;21.92;;;;;;;-145.37;100.00;61290.75;6459631;22;19996;-86
2024/05/03 12:22:58;;;;;;;24.63;23.10;;;;;;;-145.37;100.00;61290.75;6459548;22;19990;-84
2024/05/03 12:25:25;;;;;;;23.50;22.10;;;;;;;-145.37;100.00;61290.75;6415259;22;19998;-85
2024/05/03 12:27:52;;;;;;;20.15;18.85;;;;;;;-145.37;100.00;61290.75;6415385;22;20444;-82
2024/05/03 12:30:18;;;;;;;18.63;17.25;;;;;;;-145.37;100.00;61290.75;6416411;22;20390;-87
2024/05/03 12:32:45;;;;;;;19.60;17.77;;;;;;;-145.37;100.00;61290.75;6411938;22;19994;-84
2024/05/03 12:35:12;;;;;;;19.00;17.67;;;;;;;-145.37;100.00;61290.75;6411648;22;19991;-85
2024/05/03 12:37:40;;;;;;;16.23;14.80;;;;;;;-145.37;100.00;61290.75;6412089;22;19991;-85
2024/05/03 12:40:07;;;;;;;17.08;15.52;;;;;;;-145.37;100.00;61290.75;6415212;22;20003;-85
2024/05/03 12:42:35;;;;;;;15.55;14.38;;;;;;;-145.37;100.00;61290.75;6419172;22;19994;-85
2024/05/03 12:45:05;;;;;;;17.23;15.80;;;;;;;-145.37;100.00;61290.75;6420340;22;20006;-86
2024/05/03 12:47:34;;;;;;;19.25;17.65;;;;;;;-145.37;100.00;61290.75;6420241;22;20033;-86
2024/05/03 12:50:01;;;;;;;19.92;18.08;;;;;;;-145.37;100.00;61290.75;6416961;22;20102;-83
2024/05/03 12:52:28;;;;;;;17.02;15.80;;;;;;;-145.37;100.00;61290.75;6416159;22;20069;-86
2024/05/03 12:54:55;;;;;;;20.88;18.95;;;;;;;-145.37;100.00;61290.75;6414959;22;19995;-85
2024/05/03 12:57:22;;;;;;;17.90;16.17;;;;;;;-145.37;100.00;61290.75;6417968;22;19990;-84
2024/05/03 12:59:48;;;;;;;15.88;14.60;;;;;;;-145.37;100.00;61290.75;6415753;22;20105;-85
2024/05/03 13:02:16;;;;;;;14.98;13.75;;;;;;;-145.37;100.00;61290.75;6418200;22;20005;-86
2024/05/03 13:04:43;;;;;;;16.55;15.25;;;;;;;-145.37;100.00;61290.75;6416755;22;20411;-86
2024/05/03 13:07:11;;;;;;;18.50;17.08;;;;;;;-145.37;100.00;61290.75;6418447;22;20002;-86
2024/05/03 13:09:39;;;;;;;16.88;15.68;;;;;;;-145.37;100.00;61290.75;6418665;22;19990;-86
2024/05/03 13:12:09;;;;;;;18.10;16.60;;;;;;;-145.37;100.00;61290.75;6417490;22;20006;-87
2024/05/03 13:14:39;;;;;;;18.27;16.77;;;;;;;-145.37;100.00;61290.75;6414187;22;20014;-86
2024/05/03 13:17:05;;;;;;;19.13;17.27;;;;;;;-145.37;100.00;61290.75;6415750;22;20003;-86
2024/05/03 13:19:38;;;;;;;15.93;13.25;;;;;;;-145.37;100.00;61290.75;6415014;22;19995;-87
2024/05/03 13:22:04;;;;;;;15.95;10.93;;;;;;;-145.37;100.00;61290.75;6416159;22;20428;-86
2024/05/03 13:24:31;;;;;;;15.65;12.80;;;;;;;-145.37;100.00;61290.75;6416368;22;19995;-87
2024/05/03 13:26:58;;;;;;;14.90;13.40;;;;;;;-145.37;100.00;61290.75;6416215;22;20009;-87
2024/05/03 13:29:24;;;;;;;9.75;8.93;;;;;;;-145.37;100.00;61290.75;6418178;22;20285;-86
2024/05/03 13:31:51;;;;;;;9.88;8.82;;;;;;;-145.37;100.00;61290.75;6418648;22;19995;-85
2024/05/03 13:34:20;;;;;;;8.63;7.93;;;;;;;-145.37;100.00;61290.75;6424753;22;20032;-85
2024/05/03 13:36:47;;;;;;;8.63;7.80;;;;;;;-145.37;100.00;61290.75;6422995;22;20077;-85
2024/05/03 13:39:14;;;;;;;13.07;7.07;;;;;;;-145.37;100.00;61290.75;6423527;22;20009;-85
2024/05/03 13:41:42;;;;;;;11.50;8.43;;;;;;;-145.37;100.00;61290.75;6422982;22;19997;-86
2024/05/03 13:44:09;;;;;;;9.65;6.03;;;;;;;-145.37;100.00;61290.75;6467965;22;20072;-86
2024/05/03 13:46:35;;;;;;;6.55;5.95;;;;;;;-145.37;100.00;61290.75;6426562;22;20069;-85
2024/05/03 13:49:03;;;;;;;9.10;5.80;;;;;;;-145.37;100.00;61290.75;6477826;22;20022;-85
2024/05/03 13:51:44;;;;;;;9.65;4.72;;;;;;;-145.37;100.00;61290.75;6473919;22;20008;-87
2024/05/03 13:54:11;;;;;;;8.27;5.72;;;;;;;-145.37;100.00;61290.75;6432001;22;19994;-86
2024/05/03 13:56:38;;;;;;;12.77;5.50;;;;;;;-145.37;100.00;61290.75;6477171;22;20256;-85
2024/05/03 13:59:06;;;;;;;7.03;5.63;;;;;;;-145.37;100.00;61290.75;6427158;22;20664;-86
2024/05/03 14:01:32;;;;;;;12.70;5.25;;;;;;;-145.37;100.00;61290.75;6426759;22;20002;-84
2024/05/03 14:04:11;;;;;;;14.80;4.22;;;;;;;-145.37;100.00;61290.75;6431711;22;20018;-86
2024/05/03 14:06:38;;;;;;;12.13;4.55;;;;;;;-145.37;100.00;61290.75;6426663;22;19990;-84
2024/05/03 14:09:05;;;;;;;8.57;4.22;;;;;;;-145.37;100.00;61290.75;6469696;22;20002;-84
2024/05/03 14:11:31;;;;;;;8.70;4.60;;;;;;;-145.37;100.00;61290.75;6426373;22;20005;-86
2024/05/03 14:13:58;;;;;;;6.30;3.90;;;;;;;-145.37;100.00;61290.75;6470169;22;20253;-85
2024/05/03 14:16:24;;;;;;;4.63;3.20;;;;;;;-145.37;100.00;61290.75;6469586;22;19993;-85
2024/05/03 14:18:51;;;;;;;9.85;4.82;;;;;;;-145.37;100.00;61290.75;6469175;22;20002;-85
2024/05/03 14:21:19;;;;;;;8.35;3.30;;;;;;;-145.37;100.00;61290.75;6469673;22;20063;-85
2024/05/03 14:23:45;;;;;;;5.78;2.65;;;;;;;-145.37;100.00;61290.75;6425696;22;20001;-85
2024/05/03 14:26:12;;;;;;;5.97;3.20;;;;;;;-145.37;100.00;61290.75;6424694;22;19994;-85
2024/05/03 14:28:39;;;;;;;12.48;4.10;;;;;;;-145.37;100.00;61290.75;6467749;22;20001;-85
2024/05/03 14:31:06;;;;;;;5.85;3.00;;;;;;;-145.37;100.00;61290.75;6468944;22;20041;-85
2024/05/03 14:33:33;;;;;;;6.25;2.67;;;;;;;-145.37;100.00;61290.75;6415579;22;19991;-85
2024/05/03 14:36:01;;;;;;;8.25;3.67;;;;;;;-145.37;100.00;61290.75;6418232;22;20401;-85
2024/05/03 14:38:31;;;;;;;7.72;3.30;;;;;;;-145.37;100.00;61290.75;6415555;22;20018;-85
2024/05/03 14:40:58;;;;;;;8.70;3.92;;;;;;;-145.37;100.00;61290.75;6416084;22;19995;-84
2024/05/03 14:43:24;;;;;;;8.38;2.80;;;;;;;-145.37;100.00;61290.75;6416562;22;20341;-85
2024/05/03 14:45:52;;;;;;;6.85;3.13;;;;;;;-145.37;100.00;61290.75;6415046;22;20285;-86
2024/05/03 14:48:19;;;;;;;6.82;2.40;;;;;;;-145.37;100.00;61290.75;6417078;22;20445;-83
2024/05/03 14:50:47;;;;;;;6.32;2.67;;;;;;;-145.37;100.00;61290.75;6417966;22;20006;-84
2024/05/03 14:53:16;;;;;;;5.25;2.58;;;;;;;-145.37;100.00;61290.75;6416285;22;20386;-84
2024/05/03 14:55:44;;;;;;;12.32;3.47;;;;;;;-145.37;100.00;61290.75;6417441;22;20151;-87
2024/05/03 14:58:10;;;;;;;7.68;3.03;;;;;;;-145.37;100.00;61290.75;6415169;22;19990;-87
2024/05/03 15:00:40;;;;;;;6.10;2.75;;;;;;;-145.37;100.00;61290.75;6418633;22;20066;-86
2024/05/03 15:03:06;;;;;;;6.18;3.05;;;;;;;-145.37;100.00;61290.75;6418096;22;19990;-84
2024/05/03 15:05:33;;;;;;;10.02;3.30;;;;;;;-145.37;100.00;61290.75;6393494;22;20006;-85
2024/05/03 15:08:01;;;;;;;10.45;3.60;;;;;;;-145.37;100.00;61290.75;6438462;22;20002;-85
2024/05/03 15:10:28;;;;;;;6.07;3.22;;;;;;;-145.37;100.00;61290.75;6435503;22;19995;-85
2024/05/03 15:12:54;;;;;;;8.05;3.40;;;;;;;-145.37;100.00;61290.75;6435080;22;19995;-85
2024/05/03 15:15:21;;;;;;;9.32;3.45;;;;;;;-145.37;100.00;61290.75;6432097;22;19991;-85
2024/05/03 15:17:52;;;;;;;8.50;3.00;;;;;;;-145.37;100.00;61290.75;6421909;22;20010;-85
2024/05/03 15:20:19;;;;;;;6.47;2.55;;;;;;;-145.37;100.00;61290.75;6426224;22;20061;-85
2024/05/03 15:22:49;;;;;;;8.25;2.65;;;;;;;-145.37;100.00;61290.75;6419196;22;20117;-84
2024/05/03 15:25:15;;;;;;;8.60;3.00;;;;;;;-145.37;100.00;61290.75;6419848;22;19991;-85
2024/05/03 15:27:42;;;;;;;8.60;2.55;;;;;;;-145.37;100.00;61290.75;6419832;22;20113;-84
2024/05/03 15:30:12;;;;;;;8.35;3.30;;;;;;;-145.37;100.00;61290.75;6421171;22;20001;-84
2024/05/03 15:32:39;;;;;;;9.68;3.03;;;;;;;-145.37;100.00;61290.75;6420546;22;20197;-85
2024/05/03 15:35:07;;;;;;;8.70;3.35;;;;;;;-145.37;100.00;61290.75;6418561;22;20001;-85
2024/05/03 15:37:34;;;;;;;5.78;2.72;;;;;;;-145.37;100.00;61290.75;6419118;22;20360;-84
2024/05/03 15:40:01;;;;;;;5.13;2.05;;;;;;;-145.37;100.00;61290.75;6418492;22;20023;-84
2024/05/03 15:42:29;;;;;;;5.65;2.50;;;;;;;-145.37;100.00;61290.75;6414817;22;20069;-84
2024/05/03 15:44:57;;;;;;;5.20;2.17;;;;;;;-145.37;100.00;61290.75;6418218;22;20060;-84
2024/05/03 15:47:24;;;;;;;5.32;2.80;;;;;;;-145.37;100.00;61290.75;6416099;22;19991;-86
2024/05/03 15:49:51;;;;;;;4.53;2.25;;;;;;;-145.37;100.00;61290.75;6416088;22;20065;-85
2024/05/03 15:52:21;;;;;;;11.73;2.78;;;;;;;-145.37;100.00;61290.75;6427709;22;19998;-85
2024/05/03 15:54:50;;;;;;;5.15;2.40;;;;;;;-145.37;100.00;61290.75;6415104;22;20014;-85
2024/05/03 15:57:19;;;;;;;11.57;3.22;;;;;;;-145.37;100.00;61290.75;6416558;22;20106;-85
2024/05/03 15:59:45;;;;;;;7.30;2.08;;;;;;;-145.37;100.00;61290.75;6415006;22;20070;-86
2024/05/03 16:02:12;;;;;;;7.93;2.13;;;;;;;-145.37;100.00;61290.75;6420200;22;20022;-85
2024/05/03 16:04:39;;;;;;;11.05;3.05;;;;;;;-145.37;100.00;61290.75;6419944;22;20065;-86
2024/05/03 16:07:05;;;;;;;9.52;2.65;;;;;;;-145.37;100.00;61290.75;6413706;22;20070;-85
2024/05/03 16:09:32;;;;;;;10.30;2.42;;;;;;;-145.37;100.00;61290.75;6413091;22;19994;-86
2024/05/03 16:11:59;;;;;;;6.75;2.28;;;;;;;-145.37;100.00;61290.75;6415900;22;19994;-85
2024/05/03 16:14:27;;;;;;;11.18;2.50;;;;;;;-145.37;100.00;61290.75;6414816;22;20009;-86
2024/05/03 16:16:54;;;;;;;10.02;2.35;;;;;;;-145.37;100.00;61290.75;6414954;22;20258;-87
2024/05/03 16:19:21;;;;;;;9.07;2.58;;;;;;;-145.37;100.00;61290.75;6415855;22;20401;-85
2024/05/03 16:21:47;;;;;;;5.85;2.08;;;;;;;-145.37;100.00;61290.75;6413387;22;20010;-86
2024/05/03 16:24:14;;;;;;;6.10;2.40;;;;;;;-145.37;100.00;61290.75;6415590;22;19994;-85
2024/05/03 16:26:42;;;;;;;6.50;1.80;;;;;;;-145.37;100.00;61290.75;6414571;22;20005;-85
2024/05/03 16:29:09;;;;;;;7.90;1.90;;;;;;;-145.37;100.00;61290.75;6415542;22;20066;-86
2024/05/03 16:31:35;;;;;;;9.18;2.33;;;;;;;-145.37;100.00;61290.75;6415557;22;20022;-86
2024/05/03 16:34:02;;;;;;;5.78;2.15;;;;;;;-145.37;100.00;61290.75;6460685;22;20001;-85
2024/05/03 16:36:29;;;;;;;6.13;2.35;;;;;;;-145.37;100.00;61290.75;6425098;22;20001;-84
2024/05/03 16:39:00;;;;;;;11.25;2.75;;;;;;;-145.37;100.00;61290.75;6470896;22;19998;-85
2024/05/03 16:41:27;;;;;;;5.60;1.80;;;;;;;-145.37;100.00;61290.75;6471747;22;20045;-85
2024/05/03 16:43:53;;;;;;;4.50;1.70;;;;;;;-145.37;100.00;61290.75;6438252;22;20005;-87
2024/05/03 16:46:20;;;;;;;8.10;2.15;;;;;;;-145.37;100.00;61290.75;6484425;22;19997;-86
2024/05/03 16:48:47;;;;;;;8.23;2.10;;;;;;;-145.37;100.00;61290.75;6429795;22;20025;-86
2024/05/03 16:51:14;;;;;;;7.25;2.28;;;;;;;-145.37;100.00;61290.75;6468113;22;20369;-87
2024/05/03 16:53:40;;;;;;;6.57;2.10;;;;;;;-145.37;100.00;61290.75;6466803;22;20098;-86
2024/05/03 16:56:13;;;;;;;6.75;2.08;;;;;;;-145.37;100.00;61290.75;6467489;22;19990;-86
2024/05/03 16:58:40;;;;;;;6.78;1.73;;;;;;;-145.37;100.00;61290.75;6422559;22;20353;-85
2024/05/03 17:01:06;;;;;;;9.82;2.22;;;;;;;-145.37;100.00;61290.75;6422638;22;20060;-86
2024/05/03 17:03:33;;;;;;;10.82;2.75;;;;;;;-145.37;100.00;61290.75;6423020;22;20022;-85
2024/05/03 17:06:00;;;;;;;6.63;2.47;;;;;;;-145.37;100.00;61290.75;6466097;22;19993;-85
2024/05/03 17:08:27;;;;;;;11.73;2.83;;;;;;;-145.37;100.00;61290.75;6379960;22;19993;-83
2024/05/03 17:10:54;;;;;;;6.22;2.72;;;;;;;-145.37;100.00;61290.75;6465305;22;20021;-85
2024/05/03 17:13:21;;;;;;;6.60;2.47;;;;;;;-145.37;100.00;61290.75;6467505;22;20017;-85
2024/05/03 17:15:48;;;;;;;11.13;2.33;;;;;;;-145.37;100.00;61290.75;6468010;22;19998;-86
2024/05/03 17:18:14;;;;;;;6.07;2.53;;;;;;;-145.37;100.00;61290.75;6466798;22;20061;-83
2024/05/03 17:20:43;;;;;;;8.23;2.30;;;;;;;-145.37;100.00;61290.75;6422351;22;20048;-85
2024/05/03 17:23:10;;;;;;;8.23;3.35;;;;;;;-145.37;100.00;61290.75;6465912;22;20006;-85
2024/05/03 17:25:36;;;;;;;13.68;4.80;;;;;;;-145.37;100.00;61290.75;6465133;22;19994;-86
2024/05/03 17:28:03;;;;;;;9.52;2.85;;;;;;;-145.37;100.00;61290.75;6465757;22;20329;-87
2024/05/03 17:30:30;;;;;;;11.18;3.35;;;;;;;-145.37;100.00;61290.75;6466667;22;20022;-85
2024/05/03 17:32:57;;;;;;;7.97;2.95;;;;;;;-145.37;100.00;61290.75;6465329;22;19994;-84
2024/05/03 17:35:24;;;;;;;7.40;2.63;;;;;;;-145.37;100.00;61290.75;6465166;22;20408;-86
2024/05/03 17:37:52;;;;;;;12.38;3.70;;;;;;;-145.37;100.00;61290.75;6421749;22;20057;-86
2024/05/03 17:40:19;;;;;;;7.88;2.80;;;;;;;-145.37;100.00;61290.75;6466093;22;20375;-86
2024/05/03 17:42:46;;;;;;;11.32;3.78;;;;;;;-145.37;100.00;61290.75;6466505;22;20005;-86
2024/05/03 17:45:12;;;;;;;9.55;2.63;;;;;;;-145.37;100.00;61290.75;6466052;22;20396;-87
2024/05/03 17:47:40;;;;;;;8.77;2.90;;;;;;;-145.37;100.00;61290.75;6423523;22;20257;-86
2024/05/03 17:50:07;;;;;;;7.80;3.05;;;;;;;-145.37;100.00;61290.75;6421842;22;20062;-85
2024/05/03 17:52:37;;;;;;;8.77;3.45;;;;;;;-145.37;100.00;61290.75;6466964;22;19994;-85
2024/05/03 17:55:04;;;;;;;12.82;4.47;;;;;;;-145.37;100.00;61290.75;6464737;22;20010;-86
2024/05/03 17:57:30;;;;;;;8.57;3.63;;;;;;;-145.37;100.00;61290.75;6421323;22;19993;-86
2024/05/03 17:59:57;;;;;;;9.73;2.78;;;;;;;-145.37;100.00;61290.75;6465877;22;20359;-87
2024/05/03 18:02:26;;;;;;;10.18;2.58;;;;;;;-145.37;100.00;61290.75;6422548;22;20171;-87
2024/05/03 18:04:55;;;;;;;10.80;3.70;;;;;;;-145.37;100.00;61290.75;6422501;22;19994;-85
2024/05/03 18:07:22;;;;;;;6.85;3.80;;;;;;;-145.37;100.00;61290.75;6423495;22;19994;-85
2024/05/03 18:09:49;;;;;;;9.55;3.05;;;;;;;-145.37;100.00;61290.75;6467248;22;19997;-85
2024/05/03 18:12:18;;;;;;;9.05;3.78;;;;;;;-145.37;100.00;61290.75;6468437;22;20148;-86
2024/05/03 18:14:48;;;;;;;13.63;3.40;;;;;;;-145.37;100.00;61290.75;6383477;22;19989;-87
2024/05/03 18:17:15;;;;;;;12.73;3.08;;;;;;;-145.37;100.00;61290.75;6423160;22;19998;-85
2024/05/03 18:19:43;;;;;;;12.00;3.95;;;;;;;-145.37;100.00;61290.75;6468849;22;19998;-86
2024/05/03 18:22:10;;;;;;;9.98;4.13;;;;;;;-145.37;100.00;61290.75;6468116;22;20004;-87
2024/05/03 18:24:38;;;;;;;11.65;3.85;;;;;;;-145.37;100.00;61290.75;6470288;22;19994;-86
2024/05/03 18:27:04;;;;;;;15.43;3.63;;;;;;;-145.37;100.00;61290.75;6428185;22;20032;-86
2024/05/03 18:29:36;;;;;;;12.48;4.10;;;;;;;-145.37;100.00;61290.75;6474483;22;20021;-86
2024/05/03 18:32:03;;;;;;;9.65;3.50;;;;;;;-145.37;100.00;61290.75;6434312;22;20260;-87
2024/05/03 18:34:30;;;;;;;6.68;4.03;;;;;;;-145.37;100.00;61290.75;6441434;22;19986;-86
2024/05/03 18:37:02;;;;;;;11.10;3.90;;;;;;;-145.37;100.00;61290.75;6442579;22;20220;-86
2024/05/03 18:39:29;;;;;;;7.63;3.72;;;;;;;-145.37;100.00;61290.75;6442274;22;19993;-87
2024/05/03 18:41:56;;;;;;;8.93;4.28;;;;;;;-145.37;100.00;61290.75;6472784;22;20009;-87
2024/05/03 18:44:25;;;;;;;11.52;3.92;;;;;;;-145.37;100.00;61290.75;6426535;22;20066;-87
2024/05/03 18:46:52;;;;;;;6.53;4.15;;;;;;;-145.37;100.00;61290.75;6424764;22;19990;-87
2024/05/03 18:49:19;;;;;;;8.32;3.50;;;;;;;-145.37;100.00;61290.75;6425745;22;20065;-87
2024/05/03 18:51:48;;;;;;;11.38;4.43;;;;;;;-145.37;100.00;61290.75;6425219;22;19994;-86
2024/05/03 18:54:15;;;;;;;14.77;5.03;;;;;;;-145.37;100.00;61290.75;6425118;22;20072;-87
2024/05/03 18:56:42;;;;;;;10.02;4.13;;;;;;;-145.37;100.00;61290.75;6468813;22;20078;-86
2024/05/03 18:59:09;;;;;;;14.98;4.43;;;;;;;-145.37;100.00;61290.75;6424673;22;20077;-87
2024/05/03 19:01:37;;;;;;;8.18;4.35;;;;;;;-145.37;100.00;61290.75;6425492;22;20265;-85
2024/05/03 19:04:04;;;;;;;11.65;5.82;;;;;;;-145.37;100.00;61290.75;6468313;22;20005;-87
2024/05/03 19:06:32;;;;;;;11.48;6.18;;;;;;;-145.37;100.00;61290.75;6469492;22;20297;-87
2024/05/03 19:09:00;;;;;;;8.35;4.85;;;;;;;-145.37;100.00;61290.75;6467416;22;20001;-86
2024/05/03 19:11:27;;;;;;;10.07;5.60;;;;;;;-145.37;100.00;61290.75;6473012;22;19997;-86
2024/05/03 19:13:54;;;;;;;15.02;5.55;;;;;;;-145.37;100.00;61290.75;6475740;22;19997;-87
2024/05/03 19:16:21;;;;;;;12.43;6.63;;;;;;;-145.37;100.00;61290.75;6433369;22;20478;-85
2024/05/03 19:18:48;;;;;;;17.75;7.82;;;;;;;-145.37;100.00;61290.75;6479518;22;19994;-86
2024/05/03 19:21:16;;;;;;;10.60;6.75;;;;;;;-145.37;100.00;61290.75;6436698;22;20000;-84
2024/05/03 19:23:43;;;;;;;10.27;7.47;;;;;;;-145.37;100.00;61290.75;6481348;22;19993;-86
2024/05/03 19:26:15;;;;;;;8.82;7.22;;;;;;;-145.37;100.00;61290.75;6482611;22;19997;-86
2024/05/03 19:28:46;;;;;;;10.82;8.32;;;;;;;-145.37;100.00;61290.75;6482818;22;19990;-87
2024/05/03 19:31:17;;;;;;;11.20;7.50;;;;;;;-145.37;100.00;61290.75;6436821;22;19997;-85
2024/05/03 19:33:46;;;;;;;11.82;8.45;;;;;;;-145.37;100.00;61290.75;6478584;22;20006;-88
2024/05/03 19:36:14;;;;;;;15.95;9.93;;;;;;;-145.37;100.00;61290.75;6434706;22;20002;-86
2024/05/03 19:38:41;;;;;;;11.15;9.95;;;;;;;-145.37;100.00;61290.75;6435597;22;20019;-87
2024/05/03 19:41:07;;;;;;;13.43;10.50;;;;;;;-145.37;100.00;61290.75;6435492;22;20032;-86
2024/05/03 19:43:34;;;;;;;12.00;10.88;;;;;;;-145.37;100.00;61290.75;6433551;22;20001;-87
2024/05/03 19:46:01;;;;;;;18.27;12.30;;;;;;;-145.37;100.00;61290.75;6478236;22;20002;-86
2024/05/03 19:48:29;;;;;;;13.73;12.35;;;;;;;-145.37;100.00;61290.75;6433076;22;20372;-86
2024/05/03 19:50:57;;;;;;;14.65;13.45;;;;;;;-145.37;100.00;61290.75;6438533;22;19990;-91
2024/05/03 19:53:24;;;;;;;15.93;14.27;;;;;;;-145.37;100.00;61290.75;6481377;22;19990;-91
2024/05/03 19:55:52;;;;;;;19.17;15.07;;;;;;;-145.37;100.00;61290.75;6481890;22;19998;-91
2024/05/03 19:58:19;;;;;;;16.08;14.52;;;;;;;-145.37;100.00;61290.75;6437434;22;20026;-92
2024/05/03 20:00:51;;;;;;;16.38;15.13;;;;;;;-145.37;100.00;61290.75;6438287;22;20000;-91
2024/05/03 20:03:18;;;;;;;18.73;16.60;;;;;;;-145.37;100.00;61290.75;6435741;22;19990;-90
2024/05/03 20:05:45;;;;;;;17.08;15.88;;;;;;;-145.37;100.00;61290.75;6438112;22;20006;-91
2024/05/03 20:08:11;;;;;;;16.63;15.43;;;;;;;-145.37;100.00;61290.75;6437414;22;20009;-92
2024/05/03 20:10:38;;;;;;;16.80;15.60;;;;;;;-145.37;100.00;61290.75;6481197;22;20428;-92
2024/05/03 20:13:05;;;;;;;18.73;17.23;;;;;;;-145.37;100.00;61290.75;6437823;22;20407;-91
2024/05/03 20:15:31;;;;;;;19.80;17.98;;;;;;;-145.37;100.00;61290.75;6480008;22;20006;-92
2024/05/03 20:17:58;;;;;;;19.23;17.70;;;;;;;-145.37;100.00;61290.75;6436937;22;20043;-91
2024/05/03 20:20:28;;;;;;;17.65;16.20;;;;;;;-145.37;100.00;61290.75;6435920;22;19994;-90
2024/05/03 20:22:55;;;;;;;17.48;15.88;;;;;;;-145.37;100.00;61290.75;6480443;22;20009;-91
2024/05/03 20:25:24;;;;;;;19.13;17.48;;;;;;;-145.37;100.00;61290.75;6437570;22;19994;-92
2024/05/03 20:27:51;;;;;;;18.83;17.25;;;;;;;-145.37;100.00;61290.75;6479499;22;20001;-92
2024/05/03 20:30:17;;;;;;;20.63;18.90;;;;;;;-145.37;100.00;61290.75;6480365;22;20029;-91
2024/05/03 20:32:44;;;;;;;21.13;18.95;;;;;;;-145.37;100.00;61290.75;6479639;22;20001;-92
2024/05/03 20:35:11;;;;;;;19.95;18.40;;;;;;;-145.37;100.00;61290.75;6436634;22;19989;-92
2024/05/03 20:37:37;;;;;;;20.38;18.90;;;;;;;-145.37;100.00;61290.75;6479828;22;20077;-91
2024/05/03 20:40:05;;;;;;;20.27;18.77;;;;;;;-145.37;100.00;61290.75;6435337;22;19990;-91
2024/05/03 20:42:32;;;;;;;19.70;18.20;;;;;;;-145.37;100.00;61290.75;6479032;22;20305;-91
2024/05/03 20:45:00;;;;;;;21.02;19.35;;;;;;;-145.37;100.00;61290.75;6479509;22;19997;-90
2024/05/03 20:47:27;;;;;;;22.83;20.65;;;;;;;-145.37;100.00;61290.75;6436027;22;19994;-90
2024/05/03 20:49:55;;;;;;;22.83;20.88;;;;;;;-145.37;100.00;61290.75;6477804;22;20004;-87
2024/05/03 20:52:21;;;;;;;23.25;21.02;;;;;;;-145.37;100.00;61290.75;6475136;22;19994;-86
2024/05/03 20:54:48;;;;;;;23.98;22.13;;;;;;;-145.37;100.00;61290.75;6476239;22;20067;-86
2024/05/03 20:57:15;;;;;;;22.80;20.92;;;;;;;-145.37;100.00;61290.75;6475853;22;19998;-86
2024/05/03 20:59:42;;;;;;;22.67;20.55;;;;;;;-145.37;100.00;61290.75;6431506;22;20326;-86
2024/05/03 21:02:09;;;;;;;20.92;19.52;;;;;;;-145.37;100.00;61290.75;6476417;22;20317;-87
2024/05/03 21:04:36;;;;;;;21.73;19.88;;;;;;;-145.37;100.00;61290.75;6430152;22;19998;-87
2024/05/03 21:07:03;;;;;;;22.38;20.67;;;;;;;-145.37;100.00;61290.75;6476571;22;20010;-87
2024/05/03 21:09:30;;;;;;;22.70;20.67;;;;;;;-145.37;100.00;61290.75;6431901;22;20160;-86
2024/05/03 21:11:56;;;;;;;23.42;21.63;;;;;;;-145.37;100.00;61290.75;6475461;22;20320;-85
2024/05/03 21:14:23;;;;;;;23.40;21.88;;;;;;;-145.37;100.00;61290.75;6477325;22;19994;-86
2024/05/03 21:16:50;;;;;;;23.02;21.38;;;;;;;-145.37;100.00;61290.75;6433947;22;20401;-86
2024/05/03 21:19:19;;;;;;;22.80;21.08;;;;;;;-145.37;100.00;61290.75;6477078;22;20085;-87
2024/05/03 21:21:46;;;;;;;20.70;19.38;;;;;;;-145.37;100.00;61290.75;6476736;22;20004;-86
2024/05/03 21:24:13;;;;;;;21.67;20.00;;;;;;;-145.37;100.00;61290.75;6476922;22;20001;-86
2024/05/03 21:26:40;;;;;;;22.67;21.25;;;;;;;-145.37;100.00;61290.75;6433510;22;20421;-86
2024/05/03 21:29:07;;;;;;;23.25;21.83;;;;;;;-145.37;100.00;61290.75;6392816;22;19993;-86
2024/05/03 21:31:39;;;;;;;22.85;20.80;;;;;;;-145.37;100.00;61290.75;6434420;22;20461;-86
2024/05/03 21:34:07;;;;;;;21.02;19.35;;;;;;;-145.37;100.00;61290.75;6478304;22;20005;-86
2024/05/03 21:36:34;;;;;;;19.77;18.52;;;;;;;-145.37;100.00;61290.75;6434063;22;20001;-85
2024/05/03 21:39:00;;;;;;;20.50;18.95;;;;;;;-145.37;100.00;61290.75;6478501;22;19990;-86
2024/05/03 21:41:27;;;;;;;21.00;19.65;;;;;;;-145.37;100.00;61290.75;6436091;22;19998;-86
2024/05/03 21:43:54;;;;;;;19.58;18.13;;;;;;;-145.37;100.00;61290.75;6434261;22;19994;-87
2024/05/03 21:46:30;;;;;;;20.70;19.02;;;;;;;-145.37;100.00;61290.75;6441091;22;20073;-87
2024/05/03 21:49:02;;;;;;;19.58;18.30;;;;;;;-145.37;100.00;61290.75;6482003;22;19993;-87
2024/05/03 21:51:29;;;;;;;20.30;18.67;;;;;;;-145.37;100.00;61290.75;6445365;22;19998;-86
2024/05/03 21:53:58;;;;;;;20.90;19.27;;;;;;;-145.37;100.00;61290.75;6501015;22;20013;-87
2024/05/03 21:56:25;;;;;;;18.70;17.55;;;;;;;-145.37;100.00;61290.75;6500327;22;19997;-87
2024/05/03 21:58:52;;;;;;;20.27;18.90;;;;;;;-145.37;100.00;61290.75;6455947;22;20041;-87
2024/05/03 22:01:18;;;;;;;20.42;19.23;;;;;;;-145.37;100.00;61290.75;6487755;22;19994;-88